Terminal Aerodrome Forecast
Issued by NWS

Home | Current Version | Previous Version | Text Only | Print | Product List | Glossary On
Versions: 1 2 3 4 5 6 7 8 9 10 11 12 13 14 15 16 17 18 19 20 21 22 23 24 25 26 27 28 29 30 31 32 33 34 35 36 37 38 39 40
000
FTUS45 KBOI 231407 AAB
TAFJER
TAF AMD
KJER 231407Z 2314/2412 04019KT 1 1/2SM -SN BLSN BR OVC015
     FM231900 25012G22KT 1SM -SN BLSN BR OVC015
      TEMPO 2319/2322 1SM -SN BR BKN007
     FM240300 25013G23KT 2SM -SN BLSN BR OVC007=

USA.gov is the U.S. government's official web portal to all federal, state and local government web resources and services.